sensor_id;sensor_type;location;lat;lon;timestamp;P1;durP1;ratioP1;P2;durP2;ratioP2
74259;SDS011;62630;55.874;37.516;2022-11-15T00:01:43;6.15;;;0.95;;
74259;SDS011;62630;55.874;37.516;2022-11-15T00:04:09;3.65;;;0.60;;
74259;SDS011;62630;55.874;37.516;2022-11-15T00:06:35;1.42;;;0.63;;
74259;SDS011;62630;55.874;37.516;2022-11-15T00:09:00;3.35;;;0.82;;
74259;SDS011;62630;55.874;37.516;2022-11-15T00:11:26;4.57;;;0.95;;
74259;SDS011;62630;55.874;37.516;2022-11-15T00:13:55;4.75;;;1.15;;
74259;SDS011;62630;55.874;37.516;2022-11-15T00:16:22;2.85;;;0.60;;
74259;SDS011;62630;55.874;37.516;2022-11-15T00:18:47;3.60;;;0.70;;
74259;SDS011;62630;55.874;37.516;2022-11-15T00:21:13;4.43;;;0.73;;
74259;SDS011;62630;55.874;37.516;2022-11-15T00:23:39;2.08;;;0.60;;
74259;SDS011;62630;55.874;37.516;2022-11-15T00:26:05;1.85;;;0.70;;
74259;SDS011;62630;55.874;37.516;2022-11-15T00:28:31;1.60;;;0.95;;
74259;SDS011;62630;55.874;37.516;2022-11-15T00:31:00;2.35;;;0.70;;
74259;SDS011;62630;55.874;37.516;2022-11-15T00:33:28;5.85;;;1.08;;
74259;SDS011;62630;55.874;37.516;2022-11-15T00:35:53;7.13;;;1.20;;
74259;SDS011;62630;55.874;37.516;2022-11-15T00:38:24;3.05;;;0.82;;
74259;SDS011;62630;55.874;37.516;2022-11-15T00:40:49;4.22;;;1.33;;
74259;SDS011;62630;55.874;37.516;2022-11-15T00:43:14;4.07;;;0.95;;
74259;SDS011;62630;55.874;37.516;2022-11-15T00:45:40;2.17;;;0.90;;
74259;SDS011;62630;55.874;37.516;2022-11-15T00:48:05;1.48;;;0.43;;
74259;SDS011;62630;55.874;37.516;2022-11-15T00:50:31;1.55;;;0.50;;
74259;SDS011;62630;55.874;37.516;2022-11-15T00:52:56;5.60;;;0.90;;
74259;SDS011;62630;55.874;37.516;2022-11-15T00:55:22;1.90;;;0.50;;
74259;SDS011;62630;55.874;37.516;2022-11-15T00:57:47;0.93;;;0.45;;
74259;SDS011;62630;55.874;37.516;2022-11-15T01:00:13;1.42;;;0.50;;
74259;SDS011;62630;55.874;37.516;2022-11-15T01:02:38;4.80;;;1.05;;
74259;SDS011;62630;55.874;37.516;2022-11-15T01:05:04;1.75;;;0.50;;
74259;SDS011;62630;55.874;37.516;2022-11-15T01:07:30;2.80;;;0.70;;
74259;SDS011;62630;55.874;37.516;2022-11-15T01:09:55;0.75;;;0.40;;
74259;SDS011;62630;55.874;37.516;2022-11-15T01:12:21;2.15;;;0.77;;
74259;SDS011;62630;55.874;37.516;2022-11-15T01:14:46;2.70;;;0.77;;
74259;SDS011;62630;55.874;37.516;2022-11-15T01:17:12;2.22;;;0.77;;
74259;SDS011;62630;55.874;37.516;2022-11-15T01:19:37;1.58;;;0.88;;
74259;SDS011;62630;55.874;37.516;2022-11-15T01:22:03;2.50;;;0.60;;
74259;SDS011;62630;55.874;37.516;2022-11-15T01:24:28;2.30;;;0.90;;
74259;SDS011;62630;55.874;37.516;2022-11-15T01:26:53;4.25;;;0.55;;
74259;SDS011;62630;55.874;37.516;2022-11-15T01:29:22;4.40;;;0.90;;
74259;SDS011;62630;55.874;37.516;2022-11-15T01:31:48;3.83;;;1.38;;
74259;SDS011;62630;55.874;37.516;2022-11-15T01:34:13;3.92;;;1.13;;
74259;SDS011;62630;55.874;37.516;2022-11-15T01:36:40;6.07;;;1.42;;
74259;SDS011;62630;55.874;37.516;2022-11-15T01:39:05;2.40;;;0.93;;
74259;SDS011;62630;55.874;37.516;2022-11-15T01:41:32;6.78;;;1.70;;
74259;SDS011;62630;55.874;37.516;2022-11-15T01:46:55;3.50;;;0.88;;
74259;SDS011;62630;55.874;37.516;2022-11-15T01:49:22;1.88;;;0.47;;
74259;SDS011;62630;55.874;37.516;2022-11-15T01:51:49;1.63;;;0.95;;
74259;SDS011;62630;55.874;37.516;2022-11-15T01:54:16;6.68;;;0.80;;
74259;SDS011;62630;55.874;37.516;2022-11-15T01:56:49;3.45;;;0.50;;
74259;SDS011;62630;55.874;37.516;2022-11-15T01:59:15;2.60;;;0.68;;
74259;SDS011;62630;55.874;37.516;2022-11-15T02:01:41;9.98;;;0.90;;
74259;SDS011;62630;55.874;37.516;2022-11-15T02:06:42;2.25;;;0.55;;
74259;SDS011;62630;55.874;37.516;2022-11-15T02:09:09;4.00;;;1.02;;
74259;SDS011;62630;55.874;37.516;2022-11-15T02:11:36;2.75;;;0.95;;
74259;SDS011;62630;55.874;37.516;2022-11-15T02:14:02;1.25;;;0.73;;
74259;SDS011;62630;55.874;37.516;2022-11-15T02:19:28;3.10;;;0.60;;
74259;SDS011;62630;55.874;37.516;2022-11-15T02:33:22;2.95;;;0.68;;
74259;SDS011;62630;55.874;37.516;2022-11-15T02:41:06;1.13;;;0.65;;
74259;SDS011;62630;55.874;37.516;2022-11-15T02:43:46;2.00;;;0.50;;
74259;SDS011;62630;55.874;37.516;2022-11-15T02:46:35;4.00;;;0.88;;
74259;SDS011;62630;55.874;37.516;2022-11-15T02:49:24;0.85;;;0.55;;
74259;SDS011;62630;55.874;37.516;2022-11-15T02:51:53;3.08;;;1.27;;
74259;SDS011;62630;55.874;37.516;2022-11-15T02:54:21;3.40;;;0.70;;
74259;SDS011;62630;55.874;37.516;2022-11-15T02:56:50;2.70;;;0.70;;
74259;SDS011;62630;55.874;37.516;2022-11-15T03:04:43;1.65;;;0.63;;
74259;SDS011;62630;55.874;37.516;2022-11-15T03:07:26;2.97;;;0.80;;
74259;SDS011;62630;55.874;37.516;2022-11-15T03:12:41;4.50;;;0.80;;
74259;SDS011;62630;55.874;37.516;2022-11-15T03:15:18;2.80;;;1.00;;
74259;SDS011;62630;55.874;37.516;2022-11-15T03:18:00;1.60;;;0.70;;
74259;SDS011;62630;55.874;37.516;2022-11-15T03:20:30;3.58;;;0.70;;
74259;SDS011;62630;55.874;37.516;2022-11-15T03:23:00;2.42;;;0.80;;
74259;SDS011;62630;55.874;37.516;2022-11-15T03:25:32;6.55;;;1.65;;
74259;SDS011;62630;55.874;37.516;2022-11-15T03:28:00;2.85;;;0.68;;
74259;SDS011;62630;55.874;37.516;2022-11-15T03:30:30;3.65;;;1.13;;
74259;SDS011;62630;55.874;37.516;2022-11-15T03:32:59;2.08;;;0.80;;
74259;SDS011;62630;55.874;37.516;2022-11-15T03:35:27;1.85;;;0.80;;
74259;SDS011;62630;55.874;37.516;2022-11-15T03:38:06;2.25;;;0.73;;
74259;SDS011;62630;55.874;37.516;2022-11-15T03:40:35;3.95;;;0.60;;
74259;SDS011;62630;55.874;37.516;2022-11-15T03:45:40;2.63;;;0.70;;
74259;SDS011;62630;55.874;37.516;2022-11-15T03:48:18;1.88;;;0.85;;
74259;SDS011;62630;55.874;37.516;2022-11-15T03:50:52;5.22;;;1.13;;
74259;SDS011;62630;55.874;37.516;2022-11-15T03:53:18;2.22;;;1.20;;
74259;SDS011;62630;55.874;37.516;2022-11-15T03:55:44;2.10;;;0.60;;
74259;SDS011;62630;55.874;37.516;2022-11-15T03:58:09;3.13;;;0.70;;
74259;SDS011;62630;55.874;37.516;2022-11-15T04:00:35;1.98;;;0.77;;
74259;SDS011;62630;55.874;37.516;2022-11-15T04:03:01;7.55;;;0.90;;
74259;SDS011;62630;55.874;37.516;2022-11-15T04:05:26;2.40;;;0.70;;
74259;SDS011;62630;55.874;37.516;2022-11-15T04:07:52;8.77;;;1.15;;
74259;SDS011;62630;55.874;37.516;2022-11-15T04:10:17;5.45;;;0.90;;
74259;SDS011;62630;55.874;37.516;2022-11-15T04:12:44;5.07;;;1.20;;
74259;SDS011;62630;55.874;37.516;2022-11-15T04:15:16;5.85;;;1.35;;
74259;SDS011;62630;55.874;37.516;2022-11-15T04:17:44;3.10;;;0.90;;
74259;SDS011;62630;55.874;37.516;2022-11-15T04:20:21;2.47;;;1.15;;
74259;SDS011;62630;55.874;37.516;2022-11-15T04:23:10;2.78;;;0.68;;
74259;SDS011;62630;55.874;37.516;2022-11-15T04:25:58;7.80;;;0.80;;
74259;SDS011;62630;55.874;37.516;2022-11-15T04:28:26;2.83;;;0.55;;
74259;SDS011;62630;55.874;37.516;2022-11-15T04:30:51;2.60;;;1.05;;
74259;SDS011;62630;55.874;37.516;2022-11-15T04:33:17;3.63;;;0.98;;
74259;SDS011;62630;55.874;37.516;2022-11-15T04:35:43;5.30;;;1.13;;
74259;SDS011;62630;55.874;37.516;2022-11-15T04:38:29;5.03;;;0.88;;
74259;SDS011;62630;55.874;37.516;2022-11-15T04:42:09;3.58;;;1.02;;
74259;SDS011;62630;55.874;37.516;2022-11-15T04:44:35;4.60;;;1.35;;
74259;SDS011;62630;55.874;37.516;2022-11-15T04:47:00;3.08;;;0.77;;
74259;SDS011;62630;55.874;37.516;2022-11-15T04:49:26;3.85;;;1.02;;
74259;SDS011;62630;55.874;37.516;2022-11-15T04:51:52;4.63;;;1.55;;
74259;SDS011;62630;55.874;37.516;2022-11-15T04:54:17;7.80;;;1.20;;
74259;SDS011;62630;55.874;37.516;2022-11-15T04:56:43;3.53;;;0.90;;
74259;SDS011;62630;55.874;37.516;2022-11-15T04:59:08;6.38;;;0.98;;
74259;SDS011;62630;55.874;37.516;2022-11-15T05:01:33;5.70;;;1.35;;
74259;SDS011;62630;55.874;37.516;2022-11-15T05:03:59;5.47;;;1.05;;
74259;SDS011;62630;55.874;37.516;2022-11-15T05:06:43;3.55;;;1.10;;
74259;SDS011;62630;55.874;37.516;2022-11-15T05:09:09;4.72;;;1.38;;
74259;SDS011;62630;55.874;37.516;2022-11-15T05:11:34;4.05;;;1.10;;
74259;SDS011;62630;55.874;37.516;2022-11-15T05:14:00;3.75;;;1.40;;
74259;SDS011;62630;55.874;37.516;2022-11-15T05:16:25;4.07;;;0.90;;
74259;SDS011;62630;55.874;37.516;2022-11-15T05:18:52;3.80;;;1.15;;
74259;SDS011;62630;55.874;37.516;2022-11-15T05:21:18;4.70;;;1.58;;
74259;SDS011;62630;55.874;37.516;2022-11-15T05:23:45;2.60;;;1.00;;
74259;SDS011;62630;55.874;37.516;2022-11-15T05:26:10;5.28;;;1.15;;
74259;SDS011;62630;55.874;37.516;2022-11-15T05:28:36;3.97;;;0.85;;
74259;SDS011;62630;55.874;37.516;2022-11-15T05:31:03;5.53;;;1.17;;
74259;SDS011;62630;55.874;37.516;2022-11-15T05:33:30;2.25;;;1.10;;
74259;SDS011;62630;55.874;37.516;2022-11-15T05:35:57;2.13;;;1.00;;
74259;SDS011;62630;55.874;37.516;2022-11-15T05:38:30;2.75;;;0.88;;
74259;SDS011;62630;55.874;37.516;2022-11-15T05:40:59;6.28;;;1.20;;
74259;SDS011;62630;55.874;37.516;2022-11-15T05:45:51;2.22;;;1.48;;
74259;SDS011;62630;55.874;37.516;2022-11-15T05:48:16;2.42;;;0.98;;
74259;SDS011;62630;55.874;37.516;2022-11-15T05:50:43;3.55;;;0.98;;
74259;SDS011;62630;55.874;37.516;2022-11-15T05:53:11;2.53;;;1.38;;
74259;SDS011;62630;55.874;37.516;2022-11-15T05:55:39;4.05;;;1.25;;
74259;SDS011;62630;55.874;37.516;2022-11-15T05:58:06;5.53;;;1.13;;
74259;SDS011;62630;55.874;37.516;2022-11-15T06:00:32;3.38;;;1.20;;
74259;SDS011;62630;55.874;37.516;2022-11-15T06:02:57;5.13;;;1.30;;
74259;SDS011;62630;55.874;37.516;2022-11-15T06:05:23;5.25;;;1.15;;
74259;SDS011;62630;55.874;37.516;2022-11-15T06:07:49;5.38;;;1.60;;
74259;SDS011;62630;55.874;37.516;2022-11-15T06:10:14;5.07;;;1.33;;
74259;SDS011;62630;55.874;37.516;2022-11-15T06:12:40;8.02;;;2.17;;
74259;SDS011;62630;55.874;37.516;2022-11-15T06:15:06;4.57;;;1.55;;
74259;SDS011;62630;55.874;37.516;2022-11-15T06:17:31;4.90;;;1.30;;
74259;SDS011;62630;55.874;37.516;2022-11-15T06:19:57;5.90;;;1.98;;
74259;SDS011;62630;55.874;37.516;2022-11-15T06:22:22;9.05;;;1.70;;
74259;SDS011;62630;55.874;37.516;2022-11-15T06:24:48;5.93;;;1.20;;
74259;SDS011;62630;55.874;37.516;2022-11-15T06:27:14;7.80;;;1.88;;
74259;SDS011;62630;55.874;37.516;2022-11-15T06:29:39;8.52;;;1.48;;
74259;SDS011;62630;55.874;37.516;2022-11-15T06:32:05;4.38;;;1.85;;
74259;SDS011;62630;55.874;37.516;2022-11-15T06:34:30;3.92;;;1.20;;
74259;SDS011;62630;55.874;37.516;2022-11-15T06:36:56;5.93;;;1.10;;
74259;SDS011;62630;55.874;37.516;2022-11-15T06:39:22;12.07;;;1.48;;
74259;SDS011;62630;55.874;37.516;2022-11-15T06:41:47;8.32;;;1.27;;
74259;SDS011;62630;55.874;37.516;2022-11-15T06:44:12;7.55;;;1.20;;
74259;SDS011;62630;55.874;37.516;2022-11-15T06:46:38;2.67;;;1.23;;
74259;SDS011;62630;55.874;37.516;2022-11-15T06:49:04;4.15;;;1.20;;
74259;SDS011;62630;55.874;37.516;2022-11-15T06:51:29;5.80;;;1.65;;
74259;SDS011;62630;55.874;37.516;2022-11-15T06:53:55;2.67;;;1.13;;
74259;SDS011;62630;55.874;37.516;2022-11-15T06:56:20;3.67;;;1.40;;
74259;SDS011;62630;55.874;37.516;2022-11-15T06:58:46;7.40;;;2.30;;
74259;SDS011;62630;55.874;37.516;2022-11-15T07:01:11;5.47;;;1.15;;
74259;SDS011;62630;55.874;37.516;2022-11-15T07:03:38;3.33;;;1.45;;
74259;SDS011;62630;55.874;37.516;2022-11-15T07:08:31;4.35;;;1.42;;
74259;SDS011;62630;55.874;37.516;2022-11-15T07:11:00;9.32;;;1.75;;
74259;SDS011;62630;55.874;37.516;2022-11-15T07:13:28;5.97;;;1.23;;
74259;SDS011;62630;55.874;37.516;2022-11-15T07:15:57;4.60;;;1.30;;
74259;SDS011;62630;55.874;37.516;2022-11-15T07:18:26;5.68;;;1.67;;
74259;SDS011;62630;55.874;37.516;2022-11-15T07:20:52;6.57;;;2.63;;
74259;SDS011;62630;55.874;37.516;2022-11-15T07:23:18;8.32;;;1.88;;
74259;SDS011;62630;55.874;37.516;2022-11-15T07:25:43;4.85;;;1.27;;
74259;SDS011;62630;55.874;37.516;2022-11-15T07:28:09;4.25;;;1.42;;
74259;SDS011;62630;55.874;37.516;2022-11-15T07:30:34;3.42;;;1.15;;
74259;SDS011;62630;55.874;37.516;2022-11-15T07:33:00;4.85;;;1.40;;
74259;SDS011;62630;55.874;37.516;2022-11-15T07:35:26;5.72;;;1.50;;
74259;SDS011;62630;55.874;37.516;2022-11-15T07:37:56;4.28;;;1.42;;
74259;SDS011;62630;55.874;37.516;2022-11-15T07:40:24;3.63;;;1.20;;
74259;SDS011;62630;55.874;37.516;2022-11-15T07:42:50;3.53;;;1.20;;
74259;SDS011;62630;55.874;37.516;2022-11-15T07:45:19;5.72;;;1.45;;
74259;SDS011;62630;55.874;37.516;2022-11-15T07:47:46;4.20;;;2.03;;
74259;SDS011;62630;55.874;37.516;2022-11-15T07:50:16;5.65;;;2.17;;
74259;SDS011;62630;55.874;37.516;2022-11-15T07:52:42;7.82;;;2.33;;
74259;SDS011;62630;55.874;37.516;2022-11-15T07:55:07;8.98;;;1.50;;
74259;SDS011;62630;55.874;37.516;2022-11-15T07:57:33;6.97;;;2.55;;
74259;SDS011;62630;55.874;37.516;2022-11-15T07:59:59;5.78;;;1.83;;
74259;SDS011;62630;55.874;37.516;2022-11-15T08:02:25;8.93;;;2.47;;
74259;SDS011;62630;55.874;37.516;2022-11-15T08:04:50;7.85;;;2.10;;
74259;SDS011;62630;55.874;37.516;2022-11-15T08:07:16;9.35;;;2.17;;
74259;SDS011;62630;55.874;37.516;2022-11-15T08:09:41;7.43;;;2.47;;
74259;SDS011;62630;55.874;37.516;2022-11-15T08:12:07;9.60;;;1.90;;
74259;SDS011;62630;55.874;37.516;2022-11-15T08:14:32;8.77;;;2.03;;
74259;SDS011;62630;55.874;37.516;2022-11-15T08:16:58;5.47;;;1.88;;
74259;SDS011;62630;55.874;37.516;2022-11-15T08:19:23;7.47;;;2.00;;
74259;SDS011;62630;55.874;37.516;2022-11-15T08:21:49;2.88;;;1.33;;
74259;SDS011;62630;55.874;37.516;2022-11-15T08:24:14;10.65;;;2.15;;
74259;SDS011;62630;55.874;37.516;2022-11-15T08:26:40;9.43;;;2.63;;
74259;SDS011;62630;55.874;37.516;2022-11-15T08:29:06;10.38;;;2.38;;
74259;SDS011;62630;55.874;37.516;2022-11-15T08:31:33;6.20;;;1.92;;
74259;SDS011;62630;55.874;37.516;2022-11-15T08:36:27;11.27;;;2.38;;
74259;SDS011;62630;55.874;37.516;2022-11-15T08:38:53;3.88;;;1.60;;
74259;SDS011;62630;55.874;37.516;2022-11-15T08:41:22;13.48;;;2.08;;
74259;SDS011;62630;55.874;37.516;2022-11-15T08:43:51;5.60;;;1.88;;
74259;SDS011;62630;55.874;37.516;2022-11-15T08:46:17;4.90;;;1.67;;
74259;SDS011;62630;55.874;37.516;2022-11-15T08:48:44;10.10;;;1.60;;
74259;SDS011;62630;55.874;37.516;2022-11-15T08:51:09;3.15;;;1.30;;
74259;SDS011;62630;55.874;37.516;2022-11-15T08:53:35;5.20;;;1.48;;
74259;SDS011;62630;55.874;37.516;2022-11-15T08:56:01;10.25;;;1.83;;
74259;SDS011;62630;55.874;37.516;2022-11-15T08:58:26;5.88;;;1.65;;
74259;SDS011;62630;55.874;37.516;2022-11-15T09:00:52;6.18;;;1.65;;
74259;SDS011;62630;55.874;37.516;2022-11-15T09:03:17;7.72;;;1.73;;
74259;SDS011;62630;55.874;37.516;2022-11-15T09:05:43;4.80;;;1.83;;
74259;SDS011;62630;55.874;37.516;2022-11-15T09:08:09;5.10;;;1.95;;
74259;SDS011;62630;55.874;37.516;2022-11-15T09:10:34;4.78;;;2.20;;
74259;SDS011;62630;55.874;37.516;2022-11-15T09:13:00;4.07;;;1.38;;
74259;SDS011;62630;55.874;37.516;2022-11-15T09:15:26;6.00;;;2.40;;
74259;SDS011;62630;55.874;37.516;2022-11-15T09:17:51;6.40;;;1.58;;
74259;SDS011;62630;55.874;37.516;2022-11-15T09:20:17;5.00;;;1.75;;
74259;SDS011;62630;55.874;37.516;2022-11-15T09:22:42;5.13;;;1.70;;
74259;SDS011;62630;55.874;37.516;2022-11-15T09:25:08;8.38;;;1.50;;
74259;SDS011;62630;55.874;37.516;2022-11-15T09:27:34;5.53;;;1.70;;
74259;SDS011;62630;55.874;37.516;2022-11-15T09:29:59;5.03;;;1.58;;
74259;SDS011;62630;55.874;37.516;2022-11-15T09:32:28;8.93;;;1.77;;
74259;SDS011;62630;55.874;37.516;2022-11-15T09:34:55;6.30;;;1.77;;
74259;SDS011;62630;55.874;37.516;2022-11-15T09:37:20;5.93;;;1.40;;
74259;SDS011;62630;55.874;37.516;2022-11-15T09:39:46;5.07;;;2.00;;
74259;SDS011;62630;55.874;37.516;2022-11-15T09:42:23;3.13;;;1.27;;
74259;SDS011;62630;55.874;37.516;2022-11-15T09:45:40;5.00;;;1.88;;
74259;SDS011;62630;55.874;37.516;2022-11-15T09:50:31;4.85;;;1.58;;
74259;SDS011;62630;55.874;37.516;2022-11-15T09:53:02;8.40;;;1.80;;
74259;SDS011;62630;55.874;37.516;2022-11-15T09:55:39;11.10;;;1.35;;
74259;SDS011;62630;55.874;37.516;2022-11-15T10:00:54;16.27;;;1.90;;
74259;SDS011;62630;55.874;37.516;2022-11-15T10:05:59;12.77;;;2.00;;
74259;SDS011;62630;55.874;37.516;2022-11-15T10:08:33;9.90;;;2.00;;
74259;SDS011;62630;55.874;37.516;2022-11-15T10:11:15;5.55;;;1.98;;
74259;SDS011;62630;55.874;37.516;2022-11-15T10:13:49;5.97;;;1.73;;
74259;SDS011;62630;55.874;37.516;2022-11-15T10:16:30;8.85;;;2.03;;
74259;SDS011;62630;55.874;37.516;2022-11-15T10:21:59;19.02;;;3.28;;
74259;SDS011;62630;55.874;37.516;2022-11-15T10:24:26;4.60;;;2.28;;
74259;SDS011;62630;55.874;37.516;2022-11-15T10:26:57;9.73;;;2.08;;
74259;SDS011;62630;55.874;37.516;2022-11-15T10:29:23;4.90;;;2.22;;
74259;SDS011;62630;55.874;37.516;2022-11-15T10:31:50;9.70;;;2.47;;
74259;SDS011;62630;55.874;37.516;2022-11-15T10:34:18;7.50;;;1.85;;
74259;SDS011;62630;55.874;37.516;2022-11-15T10:36:46;16.98;;;2.97;;
74259;SDS011;62630;55.874;37.516;2022-11-15T10:39:22;11.32;;;2.70;;
74259;SDS011;62630;55.874;37.516;2022-11-15T10:41:49;6.70;;;2.47;;
74259;SDS011;62630;55.874;37.516;2022-11-15T10:44:21;15.68;;;2.67;;
74259;SDS011;62630;55.874;37.516;2022-11-15T10:49:23;9.82;;;2.90;;
74259;SDS011;62630;55.874;37.516;2022-11-15T10:54:28;14.82;;;3.85;;
74259;SDS011;62630;55.874;37.516;2022-11-15T10:56:56;11.35;;;3.17;;
74259;SDS011;62630;55.874;37.516;2022-11-15T10:59:24;8.00;;;2.70;;
74259;SDS011;62630;55.874;37.516;2022-11-15T11:01:53;13.40;;;4.15;;
74259;SDS011;62630;55.874;37.516;2022-11-15T11:04:19;9.88;;;2.72;;
74259;SDS011;62630;55.874;37.516;2022-11-15T11:06:49;8.88;;;2.83;;
74259;SDS011;62630;55.874;37.516;2022-11-15T11:09:31;9.75;;;2.33;;
74259;SDS011;62630;55.874;37.516;2022-11-15T11:11:59;5.70;;;2.40;;
74259;SDS011;62630;55.874;37.516;2022-11-15T11:14:29;13.65;;;2.63;;
74259;SDS011;62630;55.874;37.516;2022-11-15T11:17:02;6.22;;;2.28;;
74259;SDS011;62630;55.874;37.516;2022-11-15T11:27:59;12.32;;;2.70;;
74259;SDS011;62630;55.874;37.516;2022-11-15T11:49:18;6.03;;;2.70;;
74259;SDS011;62630;55.874;37.516;2022-11-15T11:51:58;8.52;;;3.35;;
74259;SDS011;62630;55.874;37.516;2022-11-15T11:54:38;8.88;;;3.05;;
74259;SDS011;62630;55.874;37.516;2022-11-15T11:57:06;10.20;;;2.70;;
74259;SDS011;62630;55.874;37.516;2022-11-15T11:59:42;6.57;;;2.65;;
74259;SDS011;62630;55.874;37.516;2022-11-15T12:02:18;10.90;;;3.30;;
74259;SDS011;62630;55.874;37.516;2022-11-15T12:04:59;15.00;;;3.95;;
74259;SDS011;62630;55.874;37.516;2022-11-15T12:07:33;8.15;;;3.10;;
74259;SDS011;62630;55.874;37.516;2022-11-15T12:10:20;15.82;;;3.42;;
74259;SDS011;62630;55.874;37.516;2022-11-15T12:12:59;11.23;;;3.03;;
74259;SDS011;62630;55.874;37.516;2022-11-15T12:15:52;10.35;;;3.45;;
74259;SDS011;62630;55.874;37.516;2022-11-15T12:18:27;8.93;;;2.40;;
74259;SDS011;62630;55.874;37.516;2022-11-15T12:20:58;6.22;;;2.30;;
74259;SDS011;62630;55.874;37.516;2022-11-15T12:23:31;8.52;;;2.15;;
74259;SDS011;62630;55.874;37.516;2022-11-15T12:26:41;6.07;;;2.42;;
74259;SDS011;62630;55.874;37.516;2022-11-15T12:29:15;7.43;;;2.10;;
74259;SDS011;62630;55.874;37.516;2022-11-15T12:31:49;12.07;;;2.60;;
74259;SDS011;62630;55.874;37.516;2022-11-15T12:36:51;10.52;;;2.85;;
74259;SDS011;62630;55.874;37.516;2022-11-15T12:39:17;8.38;;;2.70;;
74259;SDS011;62630;55.874;37.516;2022-11-15T12:52:07;9.18;;;3.30;;
74259;SDS011;62630;55.874;37.516;2022-11-15T13:04:49;7.78;;;2.80;;
74259;SDS011;62630;55.874;37.516;2022-11-15T13:10:00;9.35;;;3.35;;
74259;SDS011;62630;55.874;37.516;2022-11-15T13:15:36;20.15;;;3.42;;
74259;SDS011;62630;55.874;37.516;2022-11-15T13:20:52;7.97;;;2.95;;
74259;SDS011;62630;55.874;37.516;2022-11-15T13:23:18;11.70;;;2.70;;
74259;SDS011;62630;55.874;37.516;2022-11-15T13:31:18;11.80;;;3.42;;
74259;SDS011;62630;55.874;37.516;2022-11-15T13:33:49;9.15;;;3.70;;
74259;SDS011;62630;55.874;37.516;2022-11-15T13:38:44;11.70;;;3.60;;
74259;SDS011;62630;55.874;37.516;2022-11-15T13:41:13;9.13;;;3.60;;
74259;SDS011;62630;55.874;37.516;2022-11-15T13:43:47;9.73;;;3.05;;
74259;SDS011;62630;55.874;37.516;2022-11-15T13:46:46;12.75;;;2.60;;
74259;SDS011;62630;55.874;37.516;2022-11-15T13:49:09;9.82;;;3.60;;
74259;SDS011;62630;55.874;37.516;2022-11-15T13:51:48;7.97;;;2.88;;
74259;SDS011;62630;55.874;37.516;2022-11-15T13:54:18;11.25;;;3.10;;
74259;SDS011;62630;55.874;37.516;2022-11-15T13:56:54;14.50;;;2.90;;
74259;SDS011;62630;55.874;37.516;2022-11-15T13:59:36;6.07;;;2.88;;
74259;SDS011;62630;55.874;37.516;2022-11-15T14:02:17;10.82;;;3.97;;
74259;SDS011;62630;55.874;37.516;2022-11-15T14:04:46;9.93;;;3.63;;
74259;SDS011;62630;55.874;37.516;2022-11-15T14:07:19;9.00;;;3.20;;
74259;SDS011;62630;55.874;37.516;2022-11-15T14:09:47;14.57;;;3.33;;
74259;SDS011;62630;55.874;37.516;2022-11-15T14:12:49;6.32;;;2.83;;
74259;SDS011;62630;55.874;37.516;2022-11-15T14:17:50;7.70;;;3.33;;
74259;SDS011;62630;55.874;37.516;2022-11-15T14:22:51;9.48;;;2.67;;
74259;SDS011;62630;55.874;37.516;2022-11-15T14:25:22;7.85;;;3.22;;
74259;SDS011;62630;55.874;37.516;2022-11-15T14:28:07;9.02;;;2.83;;
74259;SDS011;62630;55.874;37.516;2022-11-15T14:30:45;7.22;;;2.88;;
74259;SDS011;62630;55.874;37.516;2022-11-15T14:36:32;13.20;;;2.70;;
74259;SDS011;62630;55.874;37.516;2022-11-15T14:38:51;6.95;;;2.75;;
74259;SDS011;62630;55.874;37.516;2022-11-15T14:41:18;13.45;;;3.10;;
74259;SDS011;62630;55.874;37.516;2022-11-15T14:43:44;12.30;;;3.20;;
74259;SDS011;62630;55.874;37.516;2022-11-15T14:46:09;11.48;;;4.03;;
74259;SDS011;62630;55.874;37.516;2022-11-15T14:48:35;9.65;;;3.90;;
74259;SDS011;62630;55.874;37.516;2022-11-15T14:51:01;10.25;;;3.80;;
74259;SDS011;62630;55.874;37.516;2022-11-15T14:53:27;9.23;;;3.67;;
74259;SDS011;62630;55.874;37.516;2022-11-15T14:55:52;14.07;;;4.15;;
74259;SDS011;62630;55.874;37.516;2022-11-15T14:58:18;11.90;;;4.13;;
74259;SDS011;62630;55.874;37.516;2022-11-15T15:00:43;13.73;;;4.40;;
74259;SDS011;62630;55.874;37.516;2022-11-15T15:03:09;16.05;;;4.47;;
74259;SDS011;62630;55.874;37.516;2022-11-15T15:05:36;4.25;;;3.30;;
74259;SDS011;62630;55.874;37.516;2022-11-15T15:08:03;12.65;;;3.65;;
74259;SDS011;62630;55.874;37.516;2022-11-15T15:10:34;10.52;;;4.03;;
74259;SDS011;62630;55.874;37.516;2022-11-15T15:13:01;11.80;;;4.50;;
74259;SDS011;62630;55.874;37.516;2022-11-15T15:15:31;8.35;;;4.43;;
74259;SDS011;62630;55.874;37.516;2022-11-15T15:17:58;11.38;;;4.32;;
74259;SDS011;62630;55.874;37.516;2022-11-15T15:20:24;8.90;;;4.28;;
74259;SDS011;62630;55.874;37.516;2022-11-15T15:22:49;12.05;;;4.50;;
74259;SDS011;62630;55.874;37.516;2022-11-15T15:25:22;9.95;;;4.25;;
74259;SDS011;62630;55.874;37.516;2022-11-15T15:27:48;7.20;;;3.33;;
74259;SDS011;62630;55.874;37.516;2022-11-15T15:30:14;16.02;;;4.28;;
74259;SDS011;62630;55.874;37.516;2022-11-15T15:32:40;9.65;;;4.25;;
74259;SDS011;62630;55.874;37.516;2022-11-15T15:35:05;8.02;;;3.67;;
74259;SDS011;62630;55.874;37.516;2022-11-15T15:37:31;9.05;;;3.97;;
74259;SDS011;62630;55.874;37.516;2022-11-15T15:39:59;11.20;;;3.88;;
74259;SDS011;62630;55.874;37.516;2022-11-15T15:42:24;10.23;;;4.53;;
74259;SDS011;62630;55.874;37.516;2022-11-15T15:44:50;9.32;;;3.75;;
74259;SDS011;62630;55.874;37.516;2022-11-15T15:47:18;6.18;;;3.38;;
74259;SDS011;62630;55.874;37.516;2022-11-15T15:49:48;12.02;;;3.78;;
74259;SDS011;62630;55.874;37.516;2022-11-15T15:52:14;9.20;;;4.10;;
74259;SDS011;62630;55.874;37.516;2022-11-15T15:54:40;7.45;;;4.47;;
74259;SDS011;62630;55.874;37.516;2022-11-15T15:57:06;10.25;;;4.22;;
74259;SDS011;62630;55.874;37.516;2022-11-15T15:59:33;7.63;;;3.90;;
74259;SDS011;62630;55.874;37.516;2022-11-15T16:01:59;8.98;;;3.22;;
74259;SDS011;62630;55.874;37.516;2022-11-15T16:04:25;11.23;;;3.83;;
74259;SDS011;62630;55.874;37.516;2022-11-15T16:06:51;9.27;;;3.58;;
74259;SDS011;62630;55.874;37.516;2022-11-15T16:09:18;12.40;;;4.18;;
74259;SDS011;62630;55.874;37.516;2022-11-15T16:12:04;11.80;;;4.40;;
74259;SDS011;62630;55.874;37.516;2022-11-15T16:14:30;10.45;;;3.25;;
74259;SDS011;62630;55.874;37.516;2022-11-15T16:16:56;10.32;;;4.28;;
74259;SDS011;62630;55.874;37.516;2022-11-15T16:19:22;7.25;;;3.88;;
74259;SDS011;62630;55.874;37.516;2022-11-15T16:21:48;9.30;;;4.43;;
74259;SDS011;62630;55.874;37.516;2022-11-15T16:24:13;9.70;;;4.28;;
74259;SDS011;62630;55.874;37.516;2022-11-15T16:26:39;7.10;;;4.43;;
74259;SDS011;62630;55.874;37.516;2022-11-15T16:29:04;8.05;;;3.28;;
74259;SDS011;62630;55.874;37.516;2022-11-15T16:31:31;6.10;;;3.40;;
74259;SDS011;62630;55.874;37.516;2022-11-15T16:33:57;4.40;;;2.75;;
74259;SDS011;62630;55.874;37.516;2022-11-15T16:36:24;5.90;;;3.40;;
74259;SDS011;62630;55.874;37.516;2022-11-15T16:38:50;8.48;;;3.17;;
74259;SDS011;62630;55.874;37.516;2022-11-15T16:41:17;7.57;;;3.75;;
74259;SDS011;62630;55.874;37.516;2022-11-15T16:43:46;8.27;;;3.35;;
74259;SDS011;62630;55.874;37.516;2022-11-15T16:46:22;8.10;;;3.45;;
74259;SDS011;62630;55.874;37.516;2022-11-15T16:48:49;4.60;;;3.08;;
74259;SDS011;62630;55.874;37.516;2022-11-15T16:51:15;5.13;;;3.10;;
74259;SDS011;62630;55.874;37.516;2022-11-15T16:53:41;8.85;;;4.00;;
74259;SDS011;62630;55.874;37.516;2022-11-15T16:56:24;5.28;;;3.30;;
74259;SDS011;62630;55.874;37.516;2022-11-15T16:58:52;8.60;;;4.25;;